createdAt,value
2018-02-16T00:02:25.758Z,0.53
2018-02-16T00:04:53.382Z,0.66
2018-02-16T00:07:20.940Z,0.59
2018-02-16T00:09:48.599Z,0.62
2018-02-16T00:12:16.157Z,0.56
2018-02-16T00:14:43.695Z,0.67
2018-02-16T00:17:11.290Z,0.50
2018-02-16T00:19:38.842Z,0.49
2018-02-16T00:22:06.367Z,0.52
2018-02-16T00:24:33.978Z,0.43
2018-02-16T00:27:01.536Z,0.38
2018-02-16T00:29:29.055Z,0.31
2018-02-16T00:31:56.648Z,0.47
2018-02-16T00:34:24.181Z,0.32
2018-02-16T00:36:51.740Z,0.41
2018-02-16T00:39:19.348Z,0.49
2018-02-16T00:41:46.900Z,0.34
2018-02-16T00:44:15.570Z,0.34
2018-02-16T00:46:43.137Z,0.54
2018-02-16T00:49:10.683Z,0.67
2018-02-16T00:51:38.236Z,0.69
2018-02-16T00:54:05.805Z,0.59
2018-02-16T00:56:33.397Z,0.60
2018-02-16T00:59:00.934Z,0.53
2018-02-16T01:01:28.471Z,0.49
2018-02-16T01:03:56.034Z,0.41
2018-02-16T01:06:23.584Z,0.59
2018-02-16T01:08:51.182Z,0.61
2018-02-16T01:11:18.723Z,0.76
2018-02-16T01:13:46.332Z,0.66
2018-02-16T01:16:13.889Z,0.66
2018-02-16T01:18:41.460Z,0.50
2018-02-16T01:21:09.110Z,0.68
2018-02-16T01:23:36.753Z,0.60
2018-02-16T01:26:04.304Z,0.66
2018-02-16T01:28:31.866Z,0.54
2018-02-16T01:30:59.445Z,0.56
2018-02-16T01:33:27.061Z,0.61
2018-02-16T01:35:54.610Z,0.81
2018-02-16T01:38:22.183Z,0.74
2018-02-16T01:40:49.767Z,0.83
2018-02-16T01:43:17.325Z,0.87
2018-02-16T01:45:44.881Z,0.86
2018-02-16T01:48:12.440Z,0.94
2018-02-16T01:50:40.056Z,0.81
2018-02-16T01:53:07.702Z,0.83
2018-02-16T01:55:35.264Z,0.87
2018-02-16T01:58:02.900Z,0.71
2018-02-16T02:00:30.512Z,0.75
2018-02-16T02:02:58.097Z,0.72
2018-02-16T02:05:25.726Z,0.83
2018-02-16T02:07:53.267Z,0.80
2018-02-16T02:10:20.822Z,0.62
2018-02-16T02:12:48.426Z,0.72
2018-02-16T02:15:15.979Z,0.56
2018-02-16T02:17:43.532Z,0.60
2018-02-16T02:20:11.128Z,0.67
2018-02-16T02:22:38.692Z,0.59
2018-02-16T02:25:06.219Z,0.62
2018-02-16T02:27:33.801Z,0.57
2018-02-16T02:30:01.407Z,0.49
2018-02-16T02:32:28.919Z,0.36
2018-02-16T02:34:56.467Z,0.44
2018-02-16T02:37:24.015Z,0.36
2018-02-16T02:39:51.562Z,0.48
2018-02-16T02:42:19.111Z,0.45
2018-02-16T02:44:46.639Z,0.54
2018-02-16T02:47:14.232Z,0.67
2018-02-16T02:49:41.863Z,0.70
2018-02-16T02:52:09.395Z,0.77
2018-02-16T02:54:36.953Z,0.82
2018-02-16T02:57:04.591Z,0.65
2018-02-16T02:59:32.249Z,0.65
2018-02-16T03:01:59.813Z,0.66
2018-02-16T03:04:27.411Z,0.55
2018-02-16T03:06:54.926Z,0.39
2018-02-16T03:09:22.452Z,0.47
2018-02-16T03:11:50.032Z,0.43
2018-02-16T03:14:17.552Z,0.45
2018-02-16T03:16:45.129Z,0.42
2018-02-16T03:19:12.656Z,0.25
2018-02-16T03:21:40.194Z,0.18
2018-02-16T03:24:07.737Z,0.09
2018-02-16T03:26:35.284Z,0.15
2018-02-16T03:29:02.894Z,0.24
2018-02-16T03:31:30.430Z,0.16
2018-02-16T03:33:57.951Z,0.22
2018-02-16T03:36:25.531Z,0.26
2018-02-16T03:38:53.078Z,0.18
2018-02-16T03:41:20.600Z,0.28
2018-02-16T03:43:48.191Z,0.35
2018-02-16T03:46:15.759Z,0.23
2018-02-16T03:48:43.308Z,0.05
2018-02-16T03:51:10.938Z,-0.06
2018-02-16T03:53:38.548Z,-0.15
2018-02-16T03:56:06.107Z,-0.04
2018-02-16T03:58:33.657Z,0.02
2018-02-16T04:01:01.194Z,0.01
2018-02-16T04:03:28.865Z,-0.15
2018-02-16T04:05:56.431Z,-0.18
2018-02-16T04:08:23.975Z,-0.43
2018-02-16T04:10:51.579Z,-0.61
2018-02-16T04:13:19.103Z,-0.67
2018-02-16T04:15:46.650Z,-0.47
2018-02-16T04:18:14.227Z,-0.52
2018-02-16T04:20:41.752Z,-0.74
2018-02-16T04:23:09.340Z,-0.83
2018-02-16T04:25:38.080Z,-0.82
2018-02-16T04:28:05.622Z,-0.82
2018-02-16T04:30:33.175Z,-0.82
2018-02-16T04:33:00.773Z,-0.81
2018-02-16T04:35:28.359Z,-0.80
2018-02-16T04:37:55.923Z,-0.94
2018-02-16T04:40:23.504Z,-1.00
2018-02-16T04:42:51.089Z,-0.58
2018-02-16T04:45:18.635Z,-0.40
2018-02-16T04:47:46.212Z,-0.31
2018-02-16T04:50:13.768Z,-0.34
2018-02-16T04:52:41.328Z,-0.39
2018-02-16T04:55:08.911Z,-0.36
2018-02-16T04:57:36.515Z,-0.21
2018-02-16T05:00:04.079Z,-0.27
2018-02-16T05:02:31.621Z,-0.30
2018-02-16T05:04:59.195Z,-0.28
2018-02-16T05:07:26.744Z,-0.29
2018-02-16T05:09:54.286Z,-0.35
2018-02-16T05:12:21.897Z,-0.42
2018-02-16T05:14:49.437Z,-0.49
2018-02-16T05:17:16.965Z,-0.55
2018-02-16T05:19:44.512Z,-0.20
2018-02-16T05:22:12.067Z,-0.16
2018-02-16T05:24:39.668Z,-0.25
2018-02-16T05:27:07.255Z,-0.26
2018-02-16T05:29:34.791Z,-0.32
2018-02-16T05:32:02.413Z,-0.33
2018-02-16T05:34:30.891Z,-0.37
2018-02-16T05:36:58.469Z,-0.48
2018-02-16T05:39:26.237Z,-0.21
2018-02-16T05:41:53.894Z,-0.30
2018-02-16T05:44:21.467Z,-0.29
2018-02-16T05:46:49.050Z,-0.23
2018-02-16T05:49:16.608Z,-0.19
2018-02-16T05:51:46.296Z,-0.22
2018-02-16T05:54:13.878Z,-0.34
2018-02-16T05:56:41.448Z,-0.22
2018-02-16T05:59:09.022Z,-0.31
2018-02-16T06:01:38.512Z,-0.26
2018-02-16T06:04:06.367Z,0.01
2018-02-16T06:06:35.436Z,-0.09
2018-02-16T06:09:03.933Z,-0.18
2018-02-16T06:11:31.651Z,-0.23
2018-02-16T06:13:59.269Z,-0.16
2018-02-16T06:16:26.805Z,-0.29
2018-02-16T06:18:54.336Z,-0.30
2018-02-16T06:21:21.888Z,-0.33
2018-02-16T06:23:49.917Z,-0.32
2018-02-16T06:26:18.689Z,-0.24
2018-02-16T06:28:47.180Z,-0.30
2018-02-16T06:31:14.746Z,-0.44
2018-02-16T06:33:42.320Z,-0.36
2018-02-16T06:36:11.196Z,-0.42
2018-02-16T06:38:38.748Z,-0.51
2018-02-16T06:41:06.344Z,-0.42
2018-02-16T06:43:33.919Z,-0.45
2018-02-16T06:46:01.497Z,-0.58
2018-02-16T06:48:29.036Z,-0.63
2018-02-16T06:50:56.581Z,-0.57
2018-02-16T06:53:24.634Z,-0.64
2018-02-16T06:55:52.204Z,-0.63
2018-02-16T06:58:19.853Z,-0.56
2018-02-16T07:00:48.124Z,-0.58
2018-02-16T07:03:15.752Z,-0.63
2018-02-16T07:05:43.309Z,-0.62
2018-02-16T07:08:11.831Z,-0.53
2018-02-16T07:10:39.467Z,-0.58
2018-02-16T07:13:07.022Z,-0.48
2018-02-16T07:15:34.604Z,-0.50
2018-02-16T07:18:02.165Z,-0.47
2018-02-16T07:20:29.777Z,-0.60
2018-02-16T07:22:57.513Z,-0.54
2018-02-16T07:25:26.471Z,-0.47
2018-02-16T07:27:54.243Z,-0.44
2018-02-16T07:30:21.800Z,-0.38
2018-02-16T07:32:49.415Z,-0.33
2018-02-16T07:35:17.028Z,-0.26
2018-02-16T07:37:45.427Z,-0.22
2018-02-16T07:40:13.985Z,-0.20
2018-02-16T07:42:41.689Z,-0.07
2018-02-16T07:45:09.283Z,0.03
2018-02-16T07:47:36.851Z,0.05
2018-02-16T07:50:05.135Z,0.06
2018-02-16T07:52:32.724Z,0.05
2018-02-16T07:55:00.327Z,0.12
2018-02-16T07:57:27.852Z,0.16
2018-02-16T07:59:55.416Z,0.27
2018-02-16T08:02:23.026Z,0.36
2018-02-16T08:04:51.237Z,0.34
2018-02-16T08:07:18.827Z,0.45
2018-02-16T08:09:46.357Z,0.45
2018-02-16T08:12:13.919Z,0.40
2018-02-16T08:14:41.439Z,0.42
2018-02-16T08:17:09.671Z,0.47
2018-02-16T08:19:37.261Z,0.63
2018-02-16T08:22:04.830Z,0.69
2018-02-16T08:24:32.388Z,0.63
2018-02-16T08:26:59.968Z,0.68
2018-02-16T08:29:27.537Z,0.80
2018-02-16T08:31:55.090Z,0.95
2018-02-16T08:34:22.782Z,0.99
2018-02-16T08:36:50.316Z,1.11
2018-02-16T08:39:17.831Z,0.99
2018-02-16T08:41:45.400Z,1.02
2018-02-16T08:44:13.567Z,1.13
2018-02-16T08:46:41.152Z,1.24
2018-02-16T08:49:08.841Z,1.28
2018-02-16T08:51:36.417Z,1.32
2018-02-16T08:54:04.322Z,1.29
2018-02-16T08:56:31.925Z,1.37
2018-02-16T08:58:59.527Z,1.51
2018-02-16T09:01:27.773Z,1.50
2018-02-16T09:03:55.435Z,1.44
2018-02-16T09:06:23.065Z,1.52
2018-02-16T09:08:51.917Z,1.60
2018-02-16T09:11:19.674Z,1.78
2018-02-16T09:13:47.769Z,1.77
2018-02-16T09:16:15.351Z,1.87
2018-02-16T09:18:42.898Z,1.88
2018-02-16T09:21:10.498Z,2.02
2018-02-16T09:23:38.038Z,1.99
2018-02-16T09:26:06.440Z,2.00
2018-02-16T09:28:34.064Z,2.12
2018-02-16T09:31:01.596Z,2.22
2018-02-16T09:33:29.154Z,2.39
2018-02-16T09:35:58.922Z,2.28
2018-02-16T09:38:26.496Z,2.48
2018-02-16T09:40:54.423Z,2.60
2018-02-16T09:43:22.414Z,2.70
2018-02-16T09:45:49.977Z,2.87
2018-02-16T09:48:17.956Z,2.94
2018-02-16T09:50:46.421Z,2.89
2018-02-16T09:53:14.108Z,2.90
2018-02-16T09:55:41.637Z,2.93
2018-02-16T09:58:09.180Z,2.91
2018-02-16T10:00:36.757Z,3.02
2018-02-16T10:03:04.303Z,3.16
2018-02-16T10:05:31.818Z,3.26
2018-02-16T10:07:59.384Z,3.38
2018-02-16T10:10:26.965Z,3.48
2018-02-16T10:12:54.519Z,3.42
2018-02-16T10:15:22.101Z,3.48
2018-02-16T10:17:49.649Z,3.59
2018-02-16T10:20:17.316Z,3.58
2018-02-16T10:22:44.841Z,3.71
2018-02-16T10:25:12.459Z,3.69
2018-02-16T10:27:40.027Z,3.84
2018-02-16T10:30:07.596Z,3.72
2018-02-16T10:32:35.271Z,3.81
2018-02-16T10:35:03.097Z,3.97
2018-02-16T10:37:31.866Z,4.17
2018-02-16T10:40:00.431Z,4.13
2018-02-16T10:42:28.831Z,4.19
2018-02-16T10:44:56.491Z,4.13
2018-02-16T10:47:24.035Z,4.21
2018-02-16T10:49:52.402Z,4.23
2018-02-16T10:52:20.008Z,4.25
2018-02-16T10:54:47.599Z,4.24
2018-02-16T10:57:15.718Z,4.32
2018-02-16T10:59:43.331Z,4.33
2018-02-16T11:02:17.823Z,4.34
2018-02-16T11:04:50.923Z,4.63
2018-02-16T11:07:24.200Z,4.70
2018-02-16T11:09:52.396Z,5.04
2018-02-16T11:12:20.523Z,5.35
2018-02-16T11:14:48.140Z,5.50
2018-02-16T11:17:15.700Z,5.11
2018-02-16T11:19:43.325Z,5.30
2018-02-16T11:22:10.895Z,5.00
2018-02-16T11:24:38.438Z,5.00
2018-02-16T11:27:07.876Z,5.32
2018-02-16T11:29:35.546Z,5.62
2018-02-16T11:32:03.177Z,5.83
2018-02-16T11:34:30.728Z,5.90
2018-02-16T11:36:58.328Z,5.62
2018-02-16T11:39:25.869Z,5.44
2018-02-16T11:41:53.416Z,5.32
2018-02-16T11:44:21.000Z,5.38
2018-02-16T11:46:48.551Z,5.44
2018-02-16T11:49:16.111Z,5.85
2018-02-16T11:51:43.681Z,5.68
2018-02-16T11:54:11.251Z,5.63
2018-02-16T11:56:39.408Z,6.06
2018-02-16T11:59:06.986Z,5.87
2018-02-16T12:01:34.636Z,5.28
2018-02-16T12:04:02.189Z,5.17
2018-02-16T12:06:29.767Z,5.06
2018-02-16T12:08:57.561Z,4.81
2018-02-16T12:11:25.083Z,4.74
2018-02-16T12:13:53.082Z,5.03
2018-02-16T12:16:20.648Z,4.92
2018-02-16T12:18:49.321Z,4.91
2018-02-16T12:21:17.617Z,4.93
2018-02-16T12:23:46.137Z,4.74
2018-02-16T12:26:14.357Z,4.76
2018-02-16T12:28:42.503Z,4.73
2018-02-16T12:31:10.096Z,4.71
2018-02-16T12:33:37.612Z,4.82
2018-02-16T12:36:05.232Z,4.79
2018-02-16T12:38:32.775Z,4.74
2018-02-16T12:41:00.805Z,4.66
2018-02-16T12:43:28.399Z,4.77
2018-02-16T12:45:55.914Z,4.82
2018-02-16T12:48:24.568Z,4.80
2018-02-16T12:50:52.104Z,4.98
2018-02-16T12:53:19.667Z,5.08
2018-02-16T12:55:47.496Z,5.29
2018-02-16T12:58:15.035Z,5.56
2018-02-16T13:00:42.584Z,5.70
2018-02-16T13:03:10.155Z,5.69
2018-02-16T13:05:38.013Z,5.84
2018-02-16T13:08:07.665Z,5.99
2018-02-16T13:10:35.266Z,6.03
2018-02-16T13:13:03.108Z,6.03
2018-02-16T13:15:30.744Z,5.89
2018-02-16T13:17:58.288Z,5.76
2018-02-16T13:20:25.816Z,5.70
2018-02-16T13:22:53.413Z,5.62
2018-02-16T13:25:20.952Z,5.70
2018-02-16T13:27:48.497Z,5.53
2018-02-16T13:30:20.068Z,5.46
2018-02-16T13:32:47.604Z,5.46
2018-02-16T13:35:15.139Z,5.42
2018-02-16T13:37:42.753Z,5.47
2018-02-16T13:40:12.231Z,5.71
2018-02-16T13:42:39.811Z,5.72
2018-02-16T13:45:07.374Z,5.93
2018-02-16T13:47:35.383Z,6.26
2018-02-16T13:50:04.146Z,6.29
2018-02-16T13:52:33.518Z,6.13
2018-02-16T13:55:01.133Z,5.83
2018-02-16T13:57:29.593Z,5.71
2018-02-16T13:59:57.191Z,5.78
2018-02-16T14:02:25.595Z,5.71
2018-02-16T14:04:53.134Z,5.61
2018-02-16T14:07:20.728Z,5.48
2018-02-16T14:09:48.321Z,5.42
2018-02-16T14:12:15.839Z,5.55
2018-02-16T14:14:43.351Z,5.51
2018-02-16T14:17:12.111Z,5.62
2018-02-16T14:19:39.683Z,5.70
2018-02-16T14:22:07.233Z,5.80
2018-02-16T14:24:34.776Z,5.89
2018-02-16T14:27:02.323Z,5.97
2018-02-16T14:29:29.869Z,6.02
2018-02-16T14:31:57.414Z,5.99
2018-02-16T14:34:25.026Z,6.08
2018-02-16T14:36:52.597Z,6.29
2018-02-16T14:39:20.138Z,6.25
2018-02-16T14:41:47.705Z,6.19
2018-02-16T14:44:15.232Z,6.17
2018-02-16T14:46:42.821Z,6.15
2018-02-16T14:49:10.419Z,6.23
2018-02-16T14:51:37.954Z,6.27
2018-02-16T14:54:06.905Z,6.15
2018-02-16T14:56:35.069Z,6.19
2018-02-16T14:59:02.817Z,6.18
2018-02-16T15:01:30.336Z,6.17
2018-02-16T15:03:57.972Z,6.23
2018-02-16T15:06:25.491Z,6.39
2018-02-16T15:08:53.068Z,6.39
2018-02-16T15:11:20.586Z,6.32
2018-02-16T15:13:48.172Z,6.06
2018-02-16T15:16:15.748Z,5.92
2018-02-16T15:18:43.280Z,5.87
2018-02-16T15:21:12.163Z,5.92
2018-02-16T15:23:39.765Z,5.91
2018-02-16T15:26:07.358Z,5.82
2018-02-16T15:28:34.948Z,5.72
2018-02-16T15:31:02.561Z,5.63
2018-02-16T15:33:30.133Z,5.67
2018-02-16T15:35:57.670Z,5.68
2018-02-16T15:38:25.255Z,5.69
2018-02-16T15:40:52.793Z,5.56
2018-02-16T15:43:21.761Z,5.55
2018-02-16T15:45:49.371Z,5.43
2018-02-16T15:48:16.906Z,5.40
2018-02-16T15:50:44.424Z,5.46
2018-02-16T15:53:12.011Z,5.22
2018-02-16T15:55:39.571Z,5.31
2018-02-16T15:58:07.110Z,5.14
2018-02-16T16:00:34.704Z,5.17
2018-02-16T16:03:04.310Z,5.04
2018-02-16T16:05:32.012Z,4.95
2018-02-16T16:07:59.638Z,4.95
2018-02-16T16:10:27.278Z,4.90
2018-02-16T16:12:54.825Z,4.77
2018-02-16T16:15:22.383Z,4.79
2018-02-16T16:17:49.915Z,4.74
2018-02-16T16:20:17.562Z,4.69
2018-02-16T16:22:45.099Z,4.54
2018-02-16T16:25:12.676Z,4.48
2018-02-16T16:27:40.182Z,4.54
2018-02-16T16:30:08.912Z,4.39
2018-02-16T16:32:36.916Z,4.38
2018-02-16T16:35:04.484Z,4.26
2018-02-16T16:37:32.048Z,4.17
2018-02-16T16:39:59.629Z,4.04
2018-02-16T16:42:27.135Z,4.00
2018-02-16T16:44:54.695Z,3.93
2018-02-16T16:47:22.230Z,3.85
2018-02-16T16:49:49.827Z,3.74
2018-02-16T16:52:17.410Z,3.60
2018-02-16T16:54:44.924Z,3.66
2018-02-16T16:57:12.499Z,3.43
2018-02-16T16:59:40.035Z,3.55
2018-02-16T17:02:07.565Z,3.23
2018-02-16T17:04:35.187Z,3.18
2018-02-16T17:07:02.738Z,3.04
2018-02-16T17:09:30.274Z,3.05
2018-02-16T17:11:57.868Z,3.07
2018-02-16T17:14:25.410Z,3.04
2018-02-16T17:16:52.949Z,2.87
2018-02-16T17:19:20.507Z,2.91
2018-02-16T17:21:48.031Z,2.74
2018-02-16T17:24:15.557Z,2.62
2018-02-16T17:26:43.144Z,2.21
2018-02-16T17:29:10.711Z,1.88
2018-02-16T17:31:38.289Z,1.74
2018-02-16T17:34:05.876Z,1.68
2018-02-16T17:36:33.459Z,1.69
2018-02-16T17:39:03.252Z,1.59
2018-02-16T17:41:31.343Z,1.47
2018-02-16T17:43:58.906Z,1.33
2018-02-16T17:46:26.505Z,1.23
2018-02-16T17:48:54.235Z,1.09
2018-02-16T17:51:21.821Z,1.01
2018-02-16T17:53:49.439Z,0.97
2018-02-16T17:56:16.971Z,0.85
2018-02-16T17:58:44.539Z,0.68
2018-02-16T18:01:12.055Z,0.52
2018-02-16T18:03:39.641Z,0.40
2018-02-16T18:06:07.150Z,0.28
2018-02-16T18:08:34.850Z,0.26
2018-02-16T18:11:02.402Z,0.18
2018-02-16T18:13:29.939Z,-0.03
2018-02-16T18:15:57.575Z,-0.08
2018-02-16T18:18:25.086Z,-0.09
2018-02-16T18:20:52.735Z,-0.10
2018-02-16T18:23:20.274Z,-0.17
2018-02-16T18:25:47.816Z,-0.16
2018-02-16T18:28:15.411Z,-0.27
2018-02-16T18:30:42.930Z,-0.28
2018-02-16T18:33:10.495Z,-0.23
2018-02-16T18:35:38.127Z,-0.28
2018-02-16T18:38:05.672Z,-0.40
2018-02-16T18:40:33.195Z,-0.49
2018-02-16T18:43:00.751Z,-0.59
2018-02-16T18:45:28.273Z,-0.63
2018-02-16T18:47:55.818Z,-0.62
2018-02-16T18:50:23.406Z,-0.69
2018-02-16T18:52:50.937Z,-0.76
2018-02-16T18:55:18.514Z,-0.77
2018-02-16T18:57:46.047Z,-0.80
2018-02-16T19:00:13.556Z,-0.81
2018-02-16T19:02:41.169Z,-0.79
2018-02-16T19:05:08.725Z,-0.78
2018-02-16T19:07:36.254Z,-0.87
2018-02-16T19:10:03.870Z,-0.99
2018-02-16T19:12:31.413Z,-0.88
2018-02-16T19:14:58.962Z,-0.91
2018-02-16T19:17:26.556Z,-0.99
2018-02-16T19:19:54.142Z,-1.06
2018-02-16T19:22:21.701Z,-1.10
2018-02-16T19:24:49.267Z,-1.06
2018-02-16T19:27:16.799Z,-1.07
2018-02-16T19:29:44.405Z,-1.14
2018-02-16T19:32:12.056Z,-1.17
2018-02-16T19:34:39.622Z,-1.23
2018-02-16T19:37:07.219Z,-1.25
2018-02-16T19:39:34.782Z,-1.27
2018-02-16T19:42:02.323Z,-1.28
2018-02-16T19:44:29.904Z,-1.20
2018-02-16T19:46:57.457Z,-1.09
2018-02-16T19:49:25.066Z,-1.25
2018-02-16T19:51:52.645Z,-1.21
2018-02-16T19:54:20.230Z,-1.29
2018-02-16T19:56:47.809Z,-1.34
2018-02-16T19:59:15.390Z,-1.37
2018-02-16T20:01:42.929Z,-1.45
2018-02-16T20:04:10.549Z,-1.33
2018-02-16T20:06:38.095Z,-1.42
2018-02-16T20:09:05.644Z,-1.43
2018-02-16T20:11:33.247Z,-1.42
2018-02-16T20:14:00.801Z,-1.41
2018-02-16T20:16:28.475Z,-1.40
2018-02-16T20:18:56.057Z,-1.43
2018-02-16T20:21:24.696Z,-1.45
2018-02-16T20:23:52.317Z,-1.44
2018-02-16T20:26:19.888Z,-1.53
2018-02-16T20:28:47.450Z,-1.58
2018-02-16T20:31:14.994Z,-1.59
2018-02-16T20:33:42.523Z,-1.57
2018-02-16T20:36:10.123Z,-1.45
2018-02-16T20:38:37.673Z,-1.27
2018-02-16T20:41:05.335Z,-1.21
2018-02-16T20:43:32.917Z,-1.31
2018-02-16T20:46:00.532Z,-1.41
2018-02-16T20:48:28.081Z,-1.47
2018-02-16T20:50:55.622Z,-1.53
2018-02-16T20:53:23.186Z,-1.56
2018-02-16T20:55:50.706Z,-1.61
2018-02-16T20:58:18.251Z,-1.65
2018-02-16T21:00:45.839Z,-1.65
2018-02-16T21:03:13.389Z,-1.63
2018-02-16T21:05:40.969Z,-1.59
2018-02-16T21:08:08.534Z,-1.62
2018-02-16T21:10:36.102Z,-1.63
2018-02-16T21:13:03.667Z,-1.68
2018-02-16T21:15:31.239Z,-1.83
2018-02-16T21:17:58.862Z,-1.82
2018-02-16T21:20:26.410Z,-1.83
2018-02-16T21:22:54.007Z,-1.41
2018-02-16T21:25:21.570Z,-0.98
2018-02-16T21:27:49.101Z,-1.35
2018-02-16T21:30:16.641Z,-1.61
2018-02-16T21:32:44.236Z,-1.80
2018-02-16T21:35:12.107Z,-1.89
2018-02-16T21:37:39.679Z,-1.96
2018-02-16T21:40:07.229Z,-2.01
2018-02-16T21:42:34.842Z,-2.05
2018-02-16T21:45:02.375Z,-1.90
2018-02-16T21:47:29.903Z,-1.90
2018-02-16T21:49:57.480Z,-2.06
2018-02-16T21:52:25.702Z,-2.07
2018-02-16T21:54:53.244Z,-2.07
2018-02-16T21:57:20.775Z,-1.95
2018-02-16T21:59:48.378Z,-2.03
2018-02-16T22:02:15.922Z,-1.82
2018-02-16T22:04:43.529Z,-1.68
2018-02-16T22:07:11.118Z,-1.76
2018-02-16T22:09:38.650Z,-1.99
2018-02-16T22:12:06.239Z,-2.15
2018-02-16T22:14:33.767Z,-2.18
2018-02-16T22:17:01.328Z,-2.22
2018-02-16T22:19:28.938Z,-2.27
2018-02-16T22:21:56.460Z,-2.17
2018-02-16T22:24:24.010Z,-1.98
2018-02-16T22:26:51.584Z,-2.04
2018-02-16T22:29:19.129Z,-2.16
2018-02-16T22:31:46.723Z,-2.16
2018-02-16T22:34:15.202Z,-2.18
2018-02-16T22:36:42.746Z,-2.13
2018-02-16T22:39:10.332Z,-2.10
2018-02-16T22:41:37.863Z,-2.12
2018-02-16T22:44:05.433Z,-2.16
2018-02-16T22:46:32.962Z,-2.16
2018-02-16T22:49:00.530Z,-2.11
2018-02-16T22:51:28.097Z,-2.11
2018-02-16T22:53:55.671Z,-2.13
2018-02-16T22:56:23.230Z,-2.04
2018-02-16T22:58:50.814Z,-2.09
2018-02-16T23:01:18.404Z,-1.96
2018-02-16T23:03:46.008Z,-1.72
2018-02-16T23:06:13.556Z,-1.72
2018-02-16T23:08:41.111Z,-1.89
2018-02-16T23:11:08.663Z,-1.96
2018-02-16T23:13:36.231Z,-2.20
2018-02-16T23:16:03.771Z,-2.15
2018-02-16T23:18:31.319Z,-2.19
2018-02-16T23:20:58.933Z,-2.24
2018-02-16T23:23:26.565Z,-2.16
2018-02-16T23:25:54.110Z,-2.12
2018-02-16T23:28:21.625Z,-2.17
2018-02-16T23:30:49.208Z,-2.21
2018-02-16T23:33:16.749Z,-2.31
2018-02-16T23:35:44.346Z,-2.31
2018-02-16T23:38:11.907Z,-2.25
2018-02-16T23:40:39.463Z,-2.22
2018-02-16T23:43:06.987Z,-2.21
2018-02-16T23:45:34.521Z,-2.31
2018-02-16T23:48:02.065Z,-2.42
2018-02-16T23:50:29.680Z,-2.50
2018-02-16T23:52:57.228Z,-2.53
2018-02-16T23:55:24.789Z,-2.44
2018-02-16T23:57:52.387Z,-2.41
